sensor_id;sensor_type;location;lat;lon;timestamp;P1;durP1;ratioP1;P2;durP2;ratioP2
69789;SDS011;57064;52.046;4.800;2023-05-20T00:00:05;13.07;;;5.85;;
69789;SDS011;57064;52.046;4.800;2023-05-20T00:02:32;12.82;;;5.55;;
69789;SDS011;57064;52.046;4.800;2023-05-20T00:04:58;11.45;;;5.38;;
69789;SDS011;57064;52.046;4.800;2023-05-20T00:07:24;10.30;;;5.03;;
69789;SDS011;57064;52.046;4.800;2023-05-20T00:09:50;13.90;;;5.70;;
69789;SDS011;57064;52.046;4.800;2023-05-20T00:12:16;11.45;;;6.05;;
69789;SDS011;57064;52.046;4.800;2023-05-20T00:14:42;12.45;;;5.78;;
69789;SDS011;57064;52.046;4.800;2023-05-20T00:17:09;13.60;;;6.15;;
69789;SDS011;57064;52.046;4.800;2023-05-20T00:19:35;13.48;;;4.90;;
69789;SDS011;57064;52.046;4.800;2023-05-20T00:22:01;12.15;;;5.90;;
69789;SDS011;57064;52.046;4.800;2023-05-20T00:24:27;12.73;;;5.80;;
69789;SDS011;57064;52.046;4.800;2023-05-20T00:26:53;11.70;;;6.00;;
69789;SDS011;57064;52.046;4.800;2023-05-20T00:29:20;14.25;;;6.05;;
69789;SDS011;57064;52.046;4.800;2023-05-20T00:31:46;14.48;;;5.95;;
69789;SDS011;57064;52.046;4.800;2023-05-20T00:34:12;16.33;;;6.15;;
69789;SDS011;57064;52.046;4.800;2023-05-20T00:36:38;9.55;;;5.25;;
69789;SDS011;57064;52.046;4.800;2023-05-20T00:39:04;11.48;;;5.97;;
69789;SDS011;57064;52.046;4.800;2023-05-20T00:41:31;11.32;;;6.38;;
69789;SDS011;57064;52.046;4.800;2023-05-20T00:43:57;11.88;;;6.72;;
69789;SDS011;57064;52.046;4.800;2023-05-20T00:46:23;16.63;;;6.50;;
69789;SDS011;57064;52.046;4.800;2023-05-20T00:48:52;13.90;;;6.78;;
69789;SDS011;57064;52.046;4.800;2023-05-20T00:51:18;14.50;;;5.72;;
69789;SDS011;57064;52.046;4.800;2023-05-20T00:53:45;12.00;;;5.45;;
69789;SDS011;57064;52.046;4.800;2023-05-20T00:56:11;15.93;;;5.85;;
69789;SDS011;57064;52.046;4.800;2023-05-20T00:58:38;12.90;;;5.95;;
69789;SDS011;57064;52.046;4.800;2023-05-20T01:01:04;10.90;;;5.35;;
69789;SDS011;57064;52.046;4.800;2023-05-20T01:03:31;12.95;;;5.53;;
69789;SDS011;57064;52.046;4.800;2023-05-20T01:05:57;14.35;;;6.78;;
69789;SDS011;57064;52.046;4.800;2023-05-20T01:08:25;13.80;;;5.90;;
69789;SDS011;57064;52.046;4.800;2023-05-20T01:10:55;12.10;;;5.78;;
69789;SDS011;57064;52.046;4.800;2023-05-20T01:13:29;13.25;;;5.38;;
69789;SDS011;57064;52.046;4.800;2023-05-20T01:16:02;13.65;;;6.72;;
69789;SDS011;57064;52.046;4.800;2023-05-20T01:18:29;14.68;;;6.07;;
69789;SDS011;57064;52.046;4.800;2023-05-20T01:20:57;12.55;;;6.07;;
69789;SDS011;57064;52.046;4.800;2023-05-20T01:23:38;15.93;;;5.93;;
69789;SDS011;57064;52.046;4.800;2023-05-20T01:26:05;12.38;;;6.57;;
69789;SDS011;57064;52.046;4.800;2023-05-20T01:28:32;15.80;;;6.70;;
69789;SDS011;57064;52.046;4.800;2023-05-20T01:31:04;15.00;;;6.33;;
69789;SDS011;57064;52.046;4.800;2023-05-20T01:33:35;11.98;;;6.35;;
69789;SDS011;57064;52.046;4.800;2023-05-20T01:36:03;18.80;;;7.32;;
69789;SDS011;57064;52.046;4.800;2023-05-20T01:38:30;16.75;;;6.35;;
69789;SDS011;57064;52.046;4.800;2023-05-20T01:40:56;17.70;;;6.68;;
69789;SDS011;57064;52.046;4.800;2023-05-20T01:43:24;13.57;;;5.85;;
69789;SDS011;57064;52.046;4.800;2023-05-20T01:45:51;12.45;;;6.60;;
69789;SDS011;57064;52.046;4.800;2023-05-20T01:48:17;15.18;;;6.35;;
69789;SDS011;57064;52.046;4.800;2023-05-20T01:50:43;15.90;;;7.13;;
69789;SDS011;57064;52.046;4.800;2023-05-20T01:53:09;13.80;;;7.47;;
69789;SDS011;57064;52.046;4.800;2023-05-20T01:55:35;13.20;;;6.40;;
69789;SDS011;57064;52.046;4.800;2023-05-20T01:58:01;12.38;;;6.45;;
69789;SDS011;57064;52.046;4.800;2023-05-20T02:00:27;20.15;;;7.40;;
69789;SDS011;57064;52.046;4.800;2023-05-20T02:02:53;13.60;;;6.72;;
69789;SDS011;57064;52.046;4.800;2023-05-20T02:05:20;15.68;;;6.82;;
69789;SDS011;57064;52.046;4.800;2023-05-20T02:07:46;12.98;;;6.32;;
69789;SDS011;57064;52.046;4.800;2023-05-20T02:10:12;13.70;;;6.25;;
69789;SDS011;57064;52.046;4.800;2023-05-20T02:12:38;14.35;;;7.35;;
69789;SDS011;57064;52.046;4.800;2023-05-20T02:15:04;18.20;;;6.82;;
69789;SDS011;57064;52.046;4.800;2023-05-20T02:17:30;17.15;;;7.40;;
69789;SDS011;57064;52.046;4.800;2023-05-20T02:19:56;13.60;;;6.85;;
69789;SDS011;57064;52.046;4.800;2023-05-20T02:22:23;11.75;;;6.65;;
69789;SDS011;57064;52.046;4.800;2023-05-20T02:24:49;15.35;;;7.22;;
69789;SDS011;57064;52.046;4.800;2023-05-20T02:27:15;13.35;;;6.93;;
69789;SDS011;57064;52.046;4.800;2023-05-20T02:29:41;17.58;;;7.90;;
69789;SDS011;57064;52.046;4.800;2023-05-20T02:32:08;12.25;;;6.90;;
69789;SDS011;57064;52.046;4.800;2023-05-20T02:34:35;18.23;;;7.20;;
69789;SDS011;57064;52.046;4.800;2023-05-20T02:37:02;16.10;;;7.15;;
69789;SDS011;57064;52.046;4.800;2023-05-20T02:39:29;17.77;;;7.95;;
69789;SDS011;57064;52.046;4.800;2023-05-20T02:41:55;15.30;;;7.03;;
69789;SDS011;57064;52.046;4.800;2023-05-20T02:44:21;12.98;;;6.70;;
69789;SDS011;57064;52.046;4.800;2023-05-20T02:46:47;16.13;;;6.50;;
69789;SDS011;57064;52.046;4.800;2023-05-20T02:49:14;19.77;;;7.55;;
69789;SDS011;57064;52.046;4.800;2023-05-20T02:51:40;15.30;;;7.85;;
69789;SDS011;57064;52.046;4.800;2023-05-20T02:54:06;16.75;;;8.27;;
69789;SDS011;57064;52.046;4.800;2023-05-20T02:56:36;11.25;;;6.80;;
69789;SDS011;57064;52.046;4.800;2023-05-20T02:59:02;14.55;;;6.35;;
69789;SDS011;57064;52.046;4.800;2023-05-20T03:01:28;14.80;;;7.22;;
69789;SDS011;57064;52.046;4.800;2023-05-20T03:03:54;17.88;;;6.97;;
69789;SDS011;57064;52.046;4.800;2023-05-20T03:06:20;15.95;;;7.60;;
69789;SDS011;57064;52.046;4.800;2023-05-20T03:08:46;17.67;;;7.47;;
69789;SDS011;57064;52.046;4.800;2023-05-20T03:11:14;16.65;;;6.43;;
69789;SDS011;57064;52.046;4.800;2023-05-20T03:13:40;15.10;;;7.20;;
69789;SDS011;57064;52.046;4.800;2023-05-20T03:16:06;12.00;;;6.95;;
69789;SDS011;57064;52.046;4.800;2023-05-20T03:18:32;13.88;;;8.00;;
69789;SDS011;57064;52.046;4.800;2023-05-20T03:20:58;13.05;;;7.40;;
69789;SDS011;57064;52.046;4.800;2023-05-20T03:23:24;13.43;;;7.07;;
69789;SDS011;57064;52.046;4.800;2023-05-20T03:25:51;17.67;;;7.63;;
69789;SDS011;57064;52.046;4.800;2023-05-20T03:28:17;13.38;;;7.53;;
69789;SDS011;57064;52.046;4.800;2023-05-20T03:30:43;15.93;;;7.55;;
69789;SDS011;57064;52.046;4.800;2023-05-20T03:33:09;17.95;;;7.22;;
69789;SDS011;57064;52.046;4.800;2023-05-20T03:35:39;17.77;;;8.02;;
69789;SDS011;57064;52.046;4.800;2023-05-20T03:38:05;15.05;;;7.40;;
69789;SDS011;57064;52.046;4.800;2023-05-20T03:40:31;15.35;;;7.40;;
69789;SDS011;57064;52.046;4.800;2023-05-20T03:42:57;12.23;;;6.97;;
69789;SDS011;57064;52.046;4.800;2023-05-20T03:45:24;12.82;;;6.78;;
69789;SDS011;57064;52.046;4.800;2023-05-20T03:47:50;14.90;;;6.35;;
69789;SDS011;57064;52.046;4.800;2023-05-20T03:50:16;12.40;;;6.53;;
69789;SDS011;57064;52.046;4.800;2023-05-20T03:52:43;17.15;;;7.35;;
69789;SDS011;57064;52.046;4.800;2023-05-20T03:55:09;14.70;;;6.70;;
69789;SDS011;57064;52.046;4.800;2023-05-20T03:57:35;16.52;;;6.90;;
69789;SDS011;57064;52.046;4.800;2023-05-20T04:00:02;14.48;;;6.85;;
69789;SDS011;57064;52.046;4.800;2023-05-20T04:02:34;14.70;;;7.55;;
69789;SDS011;57064;52.046;4.800;2023-05-20T04:05:03;15.43;;;6.28;;
69789;SDS011;57064;52.046;4.800;2023-05-20T04:07:29;13.60;;;7.47;;
69789;SDS011;57064;52.046;4.800;2023-05-20T04:09:56;12.23;;;6.78;;
69789;SDS011;57064;52.046;4.800;2023-05-20T04:12:23;10.65;;;6.35;;
69789;SDS011;57064;52.046;4.800;2023-05-20T04:14:54;17.25;;;7.15;;
69789;SDS011;57064;52.046;4.800;2023-05-20T04:17:26;14.02;;;6.53;;
69789;SDS011;57064;52.046;4.800;2023-05-20T04:19:54;21.13;;;6.75;;
69789;SDS011;57064;52.046;4.800;2023-05-20T04:22:22;14.45;;;6.90;;
69789;SDS011;57064;52.046;4.800;2023-05-20T04:24:48;15.73;;;7.93;;
69789;SDS011;57064;52.046;4.800;2023-05-20T04:27:14;13.95;;;7.45;;
69789;SDS011;57064;52.046;4.800;2023-05-20T04:29:41;13.75;;;7.40;;
69789;SDS011;57064;52.046;4.800;2023-05-20T04:32:11;11.38;;;6.75;;
69789;SDS011;57064;52.046;4.800;2023-05-20T04:34:38;12.02;;;6.03;;
69789;SDS011;57064;52.046;4.800;2023-05-20T04:37:04;22.27;;;6.57;;
69789;SDS011;57064;52.046;4.800;2023-05-20T04:39:33;11.40;;;5.82;;
69789;SDS011;57064;52.046;4.800;2023-05-20T04:42:01;13.73;;;6.97;;
69789;SDS011;57064;52.046;4.800;2023-05-20T04:44:27;14.40;;;6.32;;
69789;SDS011;57064;52.046;4.800;2023-05-20T04:46:54;11.80;;;6.53;;
69789;SDS011;57064;52.046;4.800;2023-05-20T04:49:25;11.50;;;6.30;;
69789;SDS011;57064;52.046;4.800;2023-05-20T04:51:53;13.27;;;6.70;;
69789;SDS011;57064;52.046;4.800;2023-05-20T04:54:20;11.68;;;6.20;;
69789;SDS011;57064;52.046;4.800;2023-05-20T04:56:46;12.98;;;6.03;;
69789;SDS011;57064;52.046;4.800;2023-05-20T04:59:12;12.10;;;5.85;;
69789;SDS011;57064;52.046;4.800;2023-05-20T05:01:38;12.77;;;5.90;;
69789;SDS011;57064;52.046;4.800;2023-05-20T05:04:04;11.10;;;4.80;;
69789;SDS011;57064;52.046;4.800;2023-05-20T05:06:30;9.68;;;4.85;;
69789;SDS011;57064;52.046;4.800;2023-05-20T05:08:56;14.00;;;5.38;;
69789;SDS011;57064;52.046;4.800;2023-05-20T05:11:23;9.75;;;5.28;;
69789;SDS011;57064;52.046;4.800;2023-05-20T05:13:50;11.13;;;4.95;;
69789;SDS011;57064;52.046;4.800;2023-05-20T05:16:16;12.90;;;6.25;;
69789;SDS011;57064;52.046;4.800;2023-05-20T05:18:42;10.27;;;4.85;;
69789;SDS011;57064;52.046;4.800;2023-05-20T05:21:08;8.45;;;5.25;;
69789;SDS011;57064;52.046;4.800;2023-05-20T05:23:34;12.45;;;5.10;;
69789;SDS011;57064;52.046;4.800;2023-05-20T05:26:00;14.90;;;5.35;;
69789;SDS011;57064;52.046;4.800;2023-05-20T05:28:26;11.27;;;4.40;;
69789;SDS011;57064;52.046;4.800;2023-05-20T05:30:53;9.43;;;4.88;;
69789;SDS011;57064;52.046;4.800;2023-05-20T05:33:20;11.23;;;5.65;;
69789;SDS011;57064;52.046;4.800;2023-05-20T05:35:46;13.63;;;5.38;;
69789;SDS011;57064;52.046;4.800;2023-05-20T05:38:12;13.80;;;5.40;;
69789;SDS011;57064;52.046;4.800;2023-05-20T05:40:38;11.95;;;4.95;;
69789;SDS011;57064;52.046;4.800;2023-05-20T05:43:04;11.70;;;5.90;;
69789;SDS011;57064;52.046;4.800;2023-05-20T05:45:30;8.18;;;4.80;;
69789;SDS011;57064;52.046;4.800;2023-05-20T05:47:56;7.25;;;4.78;;
69789;SDS011;57064;52.046;4.800;2023-05-20T05:50:22;8.02;;;4.72;;
69789;SDS011;57064;52.046;4.800;2023-05-20T05:52:48;12.70;;;4.45;;
69789;SDS011;57064;52.046;4.800;2023-05-20T05:55:15;8.50;;;4.75;;
69789;SDS011;57064;52.046;4.800;2023-05-20T05:57:42;10.48;;;4.95;;
69789;SDS011;57064;52.046;4.800;2023-05-20T06:00:08;11.82;;;5.18;;
69789;SDS011;57064;52.046;4.800;2023-05-20T06:02:35;11.23;;;4.90;;
69789;SDS011;57064;52.046;4.800;2023-05-20T06:05:01;9.35;;;4.28;;
69789;SDS011;57064;52.046;4.800;2023-05-20T06:07:27;11.52;;;5.50;;
69789;SDS011;57064;52.046;4.800;2023-05-20T06:09:53;13.15;;;5.80;;
69789;SDS011;57064;52.046;4.800;2023-05-20T06:12:19;7.72;;;4.68;;
69789;SDS011;57064;52.046;4.800;2023-05-20T06:14:46;8.95;;;5.10;;
69789;SDS011;57064;52.046;4.800;2023-05-20T06:17:12;10.27;;;4.57;;
69789;SDS011;57064;52.046;4.800;2023-05-20T06:19:38;9.60;;;4.50;;
69789;SDS011;57064;52.046;4.800;2023-05-20T06:22:04;10.50;;;4.53;;
69789;SDS011;57064;52.046;4.800;2023-05-20T06:24:31;11.43;;;5.18;;
69789;SDS011;57064;52.046;4.800;2023-05-20T06:26:58;10.30;;;4.80;;
69789;SDS011;57064;52.046;4.800;2023-05-20T06:29:24;5.85;;;4.47;;
69789;SDS011;57064;52.046;4.800;2023-05-20T06:31:51;12.30;;;4.65;;
69789;SDS011;57064;52.046;4.800;2023-05-20T06:34:17;7.47;;;5.20;;
69789;SDS011;57064;52.046;4.800;2023-05-20T06:36:44;14.35;;;5.70;;
69789;SDS011;57064;52.046;4.800;2023-05-20T06:39:11;8.82;;;3.70;;
69789;SDS011;57064;52.046;4.800;2023-05-20T06:41:40;11.10;;;4.45;;
69789;SDS011;57064;52.046;4.800;2023-05-20T06:44:08;7.30;;;4.43;;
69789;SDS011;57064;52.046;4.800;2023-05-20T06:46:34;11.07;;;4.72;;
69789;SDS011;57064;52.046;4.800;2023-05-20T06:49:00;7.13;;;4.43;;
69789;SDS011;57064;52.046;4.800;2023-05-20T06:51:27;9.35;;;4.75;;
69789;SDS011;57064;52.046;4.800;2023-05-20T06:53:53;9.65;;;4.63;;
69789;SDS011;57064;52.046;4.800;2023-05-20T06:56:19;10.52;;;5.22;;
69789;SDS011;57064;52.046;4.800;2023-05-20T06:58:45;8.30;;;4.55;;
69789;SDS011;57064;52.046;4.800;2023-05-20T07:01:11;11.57;;;5.03;;
69789;SDS011;57064;52.046;4.800;2023-05-20T07:03:39;8.38;;;4.90;;
69789;SDS011;57064;52.046;4.800;2023-05-20T07:06:06;9.35;;;4.63;;
69789;SDS011;57064;52.046;4.800;2023-05-20T07:08:32;6.47;;;3.75;;
69789;SDS011;57064;52.046;4.800;2023-05-20T07:10:58;10.57;;;4.32;;
69789;SDS011;57064;52.046;4.800;2023-05-20T07:13:24;8.32;;;4.90;;
69789;SDS011;57064;52.046;4.800;2023-05-20T07:15:50;6.43;;;4.47;;
69789;SDS011;57064;52.046;4.800;2023-05-20T07:18:17;9.45;;;3.85;;
69789;SDS011;57064;52.046;4.800;2023-05-20T07:20:43;6.97;;;3.42;;
69789;SDS011;57064;52.046;4.800;2023-05-20T07:23:09;9.15;;;4.13;;
69789;SDS011;57064;52.046;4.800;2023-05-20T07:25:37;8.75;;;4.35;;
69789;SDS011;57064;52.046;4.800;2023-05-20T07:28:03;11.35;;;5.05;;
69789;SDS011;57064;52.046;4.800;2023-05-20T07:30:29;8.27;;;4.18;;
69789;SDS011;57064;52.046;4.800;2023-05-20T07:32:55;8.25;;;4.05;;
69789;SDS011;57064;52.046;4.800;2023-05-20T07:35:21;4.90;;;3.63;;
69789;SDS011;57064;52.046;4.800;2023-05-20T07:37:48;10.68;;;3.95;;
69789;SDS011;57064;52.046;4.800;2023-05-20T07:40:14;7.45;;;3.60;;
69789;SDS011;57064;52.046;4.800;2023-05-20T07:42:41;10.05;;;3.80;;
69789;SDS011;57064;52.046;4.800;2023-05-20T07:45:07;6.57;;;3.63;;
69789;SDS011;57064;52.046;4.800;2023-05-20T07:47:35;7.38;;;4.00;;
69789;SDS011;57064;52.046;4.800;2023-05-20T07:50:02;5.78;;;3.60;;
69789;SDS011;57064;52.046;4.800;2023-05-20T07:52:28;7.75;;;3.75;;
69789;SDS011;57064;52.046;4.800;2023-05-20T07:54:54;7.60;;;3.75;;
69789;SDS011;57064;52.046;4.800;2023-05-20T07:57:20;10.10;;;4.20;;
69789;SDS011;57064;52.046;4.800;2023-05-20T07:59:46;6.85;;;3.70;;
69789;SDS011;57064;52.046;4.800;2023-05-20T08:02:12;8.95;;;4.10;;
69789;SDS011;57064;52.046;4.800;2023-05-20T08:04:38;6.53;;;3.85;;
69789;SDS011;57064;52.046;4.800;2023-05-20T08:07:04;7.82;;;3.80;;
69789;SDS011;57064;52.046;4.800;2023-05-20T08:09:30;6.07;;;3.85;;
69789;SDS011;57064;52.046;4.800;2023-05-20T08:11:58;6.45;;;4.00;;
69789;SDS011;57064;52.046;4.800;2023-05-20T08:14:24;9.00;;;3.90;;
69789;SDS011;57064;52.046;4.800;2023-05-20T08:16:50;5.88;;;3.13;;
69789;SDS011;57064;52.046;4.800;2023-05-20T08:19:16;7.85;;;3.53;;
69789;SDS011;57064;52.046;4.800;2023-05-20T08:21:42;8.35;;;3.75;;
69789;SDS011;57064;52.046;4.800;2023-05-20T08:24:08;6.45;;;3.47;;
69789;SDS011;57064;52.046;4.800;2023-05-20T08:26:34;7.57;;;3.95;;
69789;SDS011;57064;52.046;4.800;2023-05-20T08:29:00;7.80;;;3.80;;
69789;SDS011;57064;52.046;4.800;2023-05-20T08:31:26;8.57;;;3.80;;
69789;SDS011;57064;52.046;4.800;2023-05-20T08:33:52;7.18;;;3.45;;
69789;SDS011;57064;52.046;4.800;2023-05-20T08:36:18;5.30;;;3.90;;
69789;SDS011;57064;52.046;4.800;2023-05-20T08:38:44;5.25;;;2.83;;
69789;SDS011;57064;52.046;4.800;2023-05-20T08:41:10;8.50;;;3.70;;
69789;SDS011;57064;52.046;4.800;2023-05-20T08:43:36;4.30;;;2.13;;
69789;SDS011;57064;52.046;4.800;2023-05-20T08:46:02;3.33;;;2.10;;
69789;SDS011;57064;52.046;4.800;2023-05-20T08:48:30;4.25;;;2.40;;
69789;SDS011;57064;52.046;4.800;2023-05-20T08:50:57;4.18;;;1.92;;
69789;SDS011;57064;52.046;4.800;2023-05-20T08:53:24;3.72;;;2.65;;
69789;SDS011;57064;52.046;4.800;2023-05-20T08:55:54;6.80;;;1.98;;
69789;SDS011;57064;52.046;4.800;2023-05-20T08:58:24;5.43;;;1.80;;
69789;SDS011;57064;52.046;4.800;2023-05-20T09:00:52;5.38;;;1.90;;
69789;SDS011;57064;52.046;4.800;2023-05-20T09:03:18;6.60;;;2.40;;
69789;SDS011;57064;52.046;4.800;2023-05-20T09:05:45;3.83;;;1.60;;
69789;SDS011;57064;52.046;4.800;2023-05-20T09:08:11;4.85;;;2.03;;
69789;SDS011;57064;52.046;4.800;2023-05-20T09:10:38;3.85;;;2.08;;
69789;SDS011;57064;52.046;4.800;2023-05-20T09:13:06;3.53;;;2.08;;
69789;SDS011;57064;52.046;4.800;2023-05-20T09:15:33;2.13;;;1.35;;
69789;SDS011;57064;52.046;4.800;2023-05-20T09:18:00;2.83;;;1.70;;
69789;SDS011;57064;52.046;4.800;2023-05-20T09:20:28;5.05;;;1.48;;
69789;SDS011;57064;52.046;4.800;2023-05-20T09:23:02;4.28;;;2.25;;
69789;SDS011;57064;52.046;4.800;2023-05-20T09:25:30;2.72;;;1.85;;
69789;SDS011;57064;52.046;4.800;2023-05-20T09:27:56;2.47;;;1.42;;
69789;SDS011;57064;52.046;4.800;2023-05-20T09:30:23;2.53;;;1.40;;
69789;SDS011;57064;52.046;4.800;2023-05-20T09:32:55;4.07;;;1.30;;
69789;SDS011;57064;52.046;4.800;2023-05-20T09:35:23;4.65;;;1.50;;
69789;SDS011;57064;52.046;4.800;2023-05-20T09:37:51;6.45;;;1.95;;
69789;SDS011;57064;52.046;4.800;2023-05-20T09:40:20;2.92;;;1.60;;
69789;SDS011;57064;52.046;4.800;2023-05-20T09:42:52;5.28;;;1.80;;
69789;SDS011;57064;52.046;4.800;2023-05-20T09:45:25;3.20;;;1.55;;
69789;SDS011;57064;52.046;4.800;2023-05-20T09:47:52;6.07;;;1.75;;
69789;SDS011;57064;52.046;4.800;2023-05-20T09:50:19;2.25;;;1.38;;
69789;SDS011;57064;52.046;4.800;2023-05-20T09:52:47;7.35;;;1.80;;
69789;SDS011;57064;52.046;4.800;2023-05-20T09:55:15;5.25;;;1.75;;
69789;SDS011;57064;52.046;4.800;2023-05-20T09:57:43;2.75;;;1.48;;
69789;SDS011;57064;52.046;4.800;2023-05-20T10:00:11;3.88;;;1.50;;
69789;SDS011;57064;52.046;4.800;2023-05-20T10:02:42;2.70;;;1.55;;
69789;SDS011;57064;52.046;4.800;2023-05-20T10:05:15;2.10;;;1.30;;
69789;SDS011;57064;52.046;4.800;2023-05-20T10:16:37;1.92;;;1.15;;
69789;SDS011;57064;52.046;4.800;2023-05-20T10:19:28;3.83;;;1.40;;
69789;SDS011;57064;52.046;4.800;2023-05-20T10:22:02;4.22;;;1.83;;
69789;SDS011;57064;52.046;4.800;2023-05-20T10:24:39;3.38;;;1.38;;
69789;SDS011;57064;52.046;4.800;2023-05-20T10:27:10;4.85;;;1.75;;
69789;SDS011;57064;52.046;4.800;2023-05-20T10:29:43;2.80;;;1.33;;
69789;SDS011;57064;52.046;4.800;2023-05-20T10:34:52;4.93;;;1.90;;
69789;SDS011;57064;52.046;4.800;2023-05-20T10:37:28;4.13;;;1.23;;
69789;SDS011;57064;52.046;4.800;2023-05-20T10:42:32;3.65;;;1.33;;
69789;SDS011;57064;52.046;4.800;2023-05-20T10:44:58;3.03;;;1.52;;
69789;SDS011;57064;52.046;4.800;2023-05-20T10:47:24;2.92;;;1.00;;
69789;SDS011;57064;52.046;4.800;2023-05-20T10:49:50;2.55;;;1.50;;
69789;SDS011;57064;52.046;4.800;2023-05-20T10:52:16;5.72;;;1.98;;
69789;SDS011;57064;52.046;4.800;2023-05-20T10:54:47;2.78;;;1.23;;
69789;SDS011;57064;52.046;4.800;2023-05-20T10:57:22;2.38;;;1.40;;
69789;SDS011;57064;52.046;4.800;2023-05-20T10:59:52;2.75;;;1.15;;
69789;SDS011;57064;52.046;4.800;2023-05-20T11:02:21;3.35;;;1.65;;
69789;SDS011;57064;52.046;4.800;2023-05-20T11:04:57;2.63;;;1.50;;
69789;SDS011;57064;52.046;4.800;2023-05-20T11:07:26;4.03;;;1.70;;
69789;SDS011;57064;52.046;4.800;2023-05-20T11:09:54;5.38;;;1.60;;
69789;SDS011;57064;52.046;4.800;2023-05-20T11:12:24;3.33;;;1.27;;
69789;SDS011;57064;52.046;4.800;2023-05-20T11:14:51;3.03;;;1.52;;
69789;SDS011;57064;52.046;4.800;2023-05-20T11:17:18;3.17;;;1.83;;
69789;SDS011;57064;52.046;4.800;2023-05-20T11:19:47;3.13;;;1.65;;
69789;SDS011;57064;52.046;4.800;2023-05-20T11:22:14;2.35;;;1.50;;
69789;SDS011;57064;52.046;4.800;2023-05-20T11:24:40;4.97;;;2.15;;
69789;SDS011;57064;52.046;4.800;2023-05-20T11:27:06;4.65;;;2.03;;
69789;SDS011;57064;52.046;4.800;2023-05-20T11:29:33;2.25;;;1.42;;
69789;SDS011;57064;52.046;4.800;2023-05-20T11:31:59;3.95;;;1.77;;
69789;SDS011;57064;52.046;4.800;2023-05-20T11:34:33;5.28;;;1.75;;
69789;SDS011;57064;52.046;4.800;2023-05-20T11:37:00;5.05;;;1.60;;
69789;SDS011;57064;52.046;4.800;2023-05-20T11:39:37;2.08;;;1.30;;
69789;SDS011;57064;52.046;4.800;2023-05-20T11:42:04;3.65;;;1.60;;
69789;SDS011;57064;52.046;4.800;2023-05-20T11:44:30;3.47;;;1.45;;
69789;SDS011;57064;52.046;4.800;2023-05-20T11:47:00;6.57;;;1.73;;
69789;SDS011;57064;52.046;4.800;2023-05-20T11:49:27;3.33;;;2.17;;
69789;SDS011;57064;52.046;4.800;2023-05-20T11:51:53;4.10;;;1.75;;
69789;SDS011;57064;52.046;4.800;2023-05-20T11:54:21;3.55;;;1.58;;
69789;SDS011;57064;52.046;4.800;2023-05-20T11:56:52;4.72;;;1.70;;
69789;SDS011;57064;52.046;4.800;2023-05-20T11:59:19;6.18;;;1.70;;
69789;SDS011;57064;52.046;4.800;2023-05-20T12:01:48;3.67;;;1.65;;
69789;SDS011;57064;52.046;4.800;2023-05-20T12:04:14;2.35;;;1.40;;
69789;SDS011;57064;52.046;4.800;2023-05-20T12:06:42;5.05;;;2.03;;
69789;SDS011;57064;52.046;4.800;2023-05-20T12:09:10;2.58;;;1.70;;
69789;SDS011;57064;52.046;4.800;2023-05-20T12:11:38;3.35;;;2.00;;
69789;SDS011;57064;52.046;4.800;2023-05-20T12:14:05;1.95;;;1.38;;
69789;SDS011;57064;52.046;4.800;2023-05-20T12:16:32;3.17;;;1.58;;
69789;SDS011;57064;52.046;4.800;2023-05-20T12:19:00;3.00;;;1.40;;
69789;SDS011;57064;52.046;4.800;2023-05-20T12:21:27;2.60;;;1.60;;
69789;SDS011;57064;52.046;4.800;2023-05-20T12:23:54;3.35;;;1.50;;
69789;SDS011;57064;52.046;4.800;2023-05-20T12:26:26;4.60;;;2.20;;
69789;SDS011;57064;52.046;4.800;2023-05-20T12:28:53;3.50;;;1.77;;
69789;SDS011;57064;52.046;4.800;2023-05-20T12:31:19;4.38;;;1.73;;
69789;SDS011;57064;52.046;4.800;2023-05-20T12:33:46;4.35;;;1.85;;
69789;SDS011;57064;52.046;4.800;2023-05-20T12:36:13;2.63;;;1.60;;
69789;SDS011;57064;52.046;4.800;2023-05-20T12:38:40;3.65;;;1.67;;
69789;SDS011;57064;52.046;4.800;2023-05-20T12:41:07;4.22;;;1.60;;
69789;SDS011;57064;52.046;4.800;2023-05-20T12:43:34;2.95;;;1.63;;
69789;SDS011;57064;52.046;4.800;2023-05-20T12:46:01;3.03;;;1.33;;
69789;SDS011;57064;52.046;4.800;2023-05-20T12:48:28;2.60;;;1.65;;
69789;SDS011;57064;52.046;4.800;2023-05-20T12:50:54;2.80;;;1.42;;
69789;SDS011;57064;52.046;4.800;2023-05-20T12:53:22;3.50;;;1.50;;
69789;SDS011;57064;52.046;4.800;2023-05-20T12:55:48;2.65;;;1.73;;
69789;SDS011;57064;52.046;4.800;2023-05-20T12:58:14;4.53;;;2.03;;
69789;SDS011;57064;52.046;4.800;2023-05-20T13:00:40;4.80;;;1.27;;
69789;SDS011;57064;52.046;4.800;2023-05-20T13:03:06;2.97;;;1.50;;
69789;SDS011;57064;52.046;4.800;2023-05-20T13:05:32;2.53;;;1.60;;
69789;SDS011;57064;52.046;4.800;2023-05-20T13:07:58;3.33;;;2.05;;
69789;SDS011;57064;52.046;4.800;2023-05-20T13:10:25;5.20;;;1.50;;
69789;SDS011;57064;52.046;4.800;2023-05-20T13:12:53;4.57;;;1.55;;
69789;SDS011;57064;52.046;4.800;2023-05-20T13:15:20;2.88;;;1.48;;
69789;SDS011;57064;52.046;4.800;2023-05-20T13:17:46;3.60;;;1.60;;
69789;SDS011;57064;52.046;4.800;2023-05-20T13:20:12;3.03;;;1.40;;
69789;SDS011;57064;52.046;4.800;2023-05-20T13:22:38;4.00;;;1.95;;
69789;SDS011;57064;52.046;4.800;2023-05-20T13:25:04;2.20;;;1.48;;
69789;SDS011;57064;52.046;4.800;2023-05-20T13:27:30;3.03;;;1.40;;
69789;SDS011;57064;52.046;4.800;2023-05-20T13:29:56;3.20;;;1.48;;
69789;SDS011;57064;52.046;4.800;2023-05-20T13:32:22;2.97;;;1.55;;
69789;SDS011;57064;52.046;4.800;2023-05-20T13:34:48;5.05;;;1.48;;
69789;SDS011;57064;52.046;4.800;2023-05-20T13:37:14;2.75;;;1.55;;
69789;SDS011;57064;52.046;4.800;2023-05-20T13:39:40;3.90;;;1.65;;
69789;SDS011;57064;52.046;4.800;2023-05-20T13:42:07;5.25;;;1.40;;
69789;SDS011;57064;52.046;4.800;2023-05-20T13:44:33;5.18;;;1.80;;
69789;SDS011;57064;52.046;4.800;2023-05-20T13:46:59;2.65;;;1.17;;
69789;SDS011;57064;52.046;4.800;2023-05-20T13:49:25;3.72;;;1.73;;
69789;SDS011;57064;52.046;4.800;2023-05-20T13:51:51;14.50;;;2.50;;
69789;SDS011;57064;52.046;4.800;2023-05-20T13:54:19;3.55;;;1.60;;
69789;SDS011;57064;52.046;4.800;2023-05-20T13:56:47;2.67;;;1.42;;
69789;SDS011;57064;52.046;4.800;2023-05-20T13:59:13;3.75;;;1.77;;
69789;SDS011;57064;52.046;4.800;2023-05-20T14:01:39;4.93;;;1.60;;
69789;SDS011;57064;52.046;4.800;2023-05-20T14:04:09;3.85;;;1.60;;
69789;SDS011;57064;52.046;4.800;2023-05-20T14:06:38;3.15;;;1.40;;
69789;SDS011;57064;52.046;4.800;2023-05-20T14:09:05;2.35;;;1.40;;
69789;SDS011;57064;52.046;4.800;2023-05-20T14:11:36;7.45;;;1.90;;
69789;SDS011;57064;52.046;4.800;2023-05-20T14:14:02;2.78;;;1.40;;
69789;SDS011;57064;52.046;4.800;2023-05-20T14:16:28;2.33;;;1.50;;
69789;SDS011;57064;52.046;4.800;2023-05-20T14:18:54;3.08;;;1.80;;
69789;SDS011;57064;52.046;4.800;2023-05-20T14:21:20;4.95;;;1.75;;
69789;SDS011;57064;52.046;4.800;2023-05-20T14:23:46;3.65;;;1.98;;
69789;SDS011;57064;52.046;4.800;2023-05-20T14:26:13;4.45;;;1.50;;
69789;SDS011;57064;52.046;4.800;2023-05-20T14:28:39;3.50;;;1.50;;
69789;SDS011;57064;52.046;4.800;2023-05-20T14:31:05;5.20;;;1.63;;
69789;SDS011;57064;52.046;4.800;2023-05-20T14:33:31;5.80;;;1.80;;
69789;SDS011;57064;52.046;4.800;2023-05-20T14:35:57;2.92;;;1.50;;
69789;SDS011;57064;52.046;4.800;2023-05-20T14:38:23;3.70;;;1.40;;
69789;SDS011;57064;52.046;4.800;2023-05-20T14:40:50;5.63;;;1.70;;
69789;SDS011;57064;52.046;4.800;2023-05-20T14:43:16;2.75;;;1.35;;
69789;SDS011;57064;52.046;4.800;2023-05-20T14:45:45;2.28;;;1.27;;
69789;SDS011;57064;52.046;4.800;2023-05-20T14:48:12;3.13;;;1.88;;
69789;SDS011;57064;52.046;4.800;2023-05-20T14:50:39;6.35;;;1.55;;
69789;SDS011;57064;52.046;4.800;2023-05-20T14:53:05;5.20;;;1.48;;